< Typhoon 199306 1993 Season Typhoon 199308 >
Typhoon 199307 (ROBYN)
General InformationTrack Information on Google MapsDetailed Wind InformationList of All Images || NewsDisaster Info.ResourceGoogle EarthGE AnimationAtom FeedGeoJSON
Detalied Best Track (Time Zone = UTC)
Year Month Day Hour Lat. Long. Pressure (hPa) Wind (kt) Class Image Chart
1993 8 1 06 7.0 154.0 1004 0 2 Image Chart
1993 8 1 12 7.5 153.0 1004 0 2 Image Chart
1993 8 1 18 8.2 152.1 1004 0 2 Image Chart
1993 8 2 00 8.9 150.9 1002 0 2 Image Chart
1993 8 2 06 9.6 149.2 1000 35 3 Image Chart
1993 8 2 12 9.7 147.2 996 40 3 Image Chart
1993 8 2 18 9.7 145.9 992 45 3 Image Chart
1993 8 3 00 10.0 144.8 990 45 3 Image Chart
1993 8 3 06 10.3 143.8 990 45 3 Image Chart
1993 8 3 12 10.5 142.5 985 50 4 Image Chart
1993 8 3 18 10.5 141.8 980 55 4 Image Chart
1993 8 4 00 10.5 141.2 975 60 4 Image Chart
1993 8 4 06 10.7 140.8 975 60 4 Image Chart
1993 8 4 12 11.0 140.5 975 60 4 Image Chart
1993 8 4 18 11.6 140.2 975 60 4 Image Chart
1993 8 5 00 12.3 140.0 975 60 4 Image Chart
1993 8 5 06 13.2 139.7 975 60 4 Image Chart
1993 8 5 12 14.1 139.3 970 65 5 Image Chart
1993 8 5 18 15.1 138.5 965 70 5 Image Chart
1993 8 6 00 16.0 137.4 965 70 5 Image Chart
1993 8 6 06 16.6 136.5 965 70 5 Image Chart
1993 8 6 12 17.4 135.5 960 75 5 Image Chart
1993 8 6 18 18.4 134.5 955 80 5 Image Chart
1993 8 7 00 19.4 133.4 950 80 5 Image Chart
1993 8 7 06 20.0 132.5 945 85 5 Image Chart
1993 8 7 12 20.8 131.9 945 85 5 Image Chart
1993 8 7 15 21.4 131.6 945 85 5 Image Chart
1993 8 7 18 22.0 131.3 945 85 5 Image Chart
1993 8 7 21 22.7 131.1 945 85 5 Image Chart
1993 8 8 00 23.3 130.8 945 85 5 Image Chart
1993 8 8 03 23.8 130.5 945 85 5 Image Chart
1993 8 8 06 24.3 130.3 945 85 5 Image Chart
1993 8 8 09 24.8 130.1 945 85 5 Image Chart
1993 8 8 12 25.3 129.8 945 85 5 Image Chart
1993 8 8 15 25.8 129.6 945 85 5 Image Chart
1993 8 8 18 26.3 129.5 945 85 5 Image Chart
1993 8 8 21 27.0 129.4 945 85 5 Image Chart
1993 8 9 00 27.7 129.2 940 85 5 Image Chart
1993 8 9 03 28.4 129.0 940 85 5 Image Chart
1993 8 9 06 29.0 129.0 940 85 5 Image Chart
1993 8 9 09 29.7 129.1 940 85 5 Image Chart
1993 8 9 12 30.4 129.1 940 85 5 Image Chart
1993 8 9 15 31.3 129.1 945 85 5 Image Chart
1993 8 9 18 32.2 129.2 945 85 5 Image Chart
1993 8 9 21 33.3 129.4 950 85 5 Image Chart
1993 8 10 00 34.1 129.8 955 80 5 Image Chart
1993 8 10 03 35.1 130.3 955 80 5 Image Chart
1993 8 10 06 36.0 130.9 965 70 5 Image Chart
1993 8 10 09 37.0 131.6 970 65 5 Image Chart
1993 8 10 12 38.0 132.3 975 60 4 Image Chart
1993 8 10 15 38.8 133.1 975 60 4 Image Chart
1993 8 10 18 39.5 134.0 980 55 4 Image Chart
1993 8 10 21 40.0 134.8 980 55 4 Image Chart
1993 8 11 00 40.3 135.5 985 50 4 Image Chart
1993 8 11 03 40.6 136.2 990 45 3 Image Chart
1993 8 11 06 41.0 137.1 992 40 3 Image Chart
1993 8 11 09 41.3 138.0 994 0 6 Image Chart
1993 8 11 12 41.5 139.0 994 0 6 Image Chart
1993 8 11 18 41.5 141.0 996 0 6 Image Chart
1993 8 12 00 41.0 143.0 1000 0 6 Image Chart
1993 8 12 06 40.0 145.5 1002 0 6 Image Chart
1993 8 12 12 39.0 147.5 1004 0 6 Image Chart
1993 8 12 18 38.0 148.5 1006 0 6 Image Chart
1993 8 13 00 37.5 149.5 1008 0 6 Image Chart
1993 8 13 06 37.5 150.5 1008 0 6 Image Chart
1993 8 13 12 38.0 151.5 1008 0 6 Image Chart
1993 8 13 18 38.5 153.0 1008 0 6 Image Chart
1993 8 14 00 39.0 155.0 1010 0 6 Image Chart
1993 8 14 06 39.5 157.5 1010 0 6 Image Chart
1993 8 14 12 39.5 160.0 1012 0 6 Image Chart
Japan Meteorological Agency Best Track Data | Correction Date : 1994-01-10
< Typhoon 199306 1993 Season Typhoon 199308 >

Help